sensor_id;sensor_type;location;lat;lon;timestamp;P1;durP1;ratioP1;P2;durP2;ratioP2
26271;SDS011;13997;48.902;12.472;2022-12-07T00:01:08;16.73;;;9.75;;
26271;SDS011;13997;48.902;12.472;2022-12-07T00:03:35;14.90;;;9.90;;
26271;SDS011;13997;48.902;12.472;2022-12-07T00:06:01;16.65;;;10.45;;
26271;SDS011;13997;48.902;12.472;2022-12-07T00:08:28;14.65;;;9.95;;
26271;SDS011;13997;48.902;12.472;2022-12-07T00:10:54;14.68;;;10.20;;
26271;SDS011;13997;48.902;12.472;2022-12-07T00:13:20;17.70;;;10.65;;
26271;SDS011;13997;48.902;12.472;2022-12-07T00:15:46;15.63;;;10.27;;
26271;SDS011;13997;48.902;12.472;2022-12-07T00:18:11;14.57;;;10.70;;
26271;SDS011;13997;48.902;12.472;2022-12-07T00:20:37;18.70;;;10.50;;
26271;SDS011;13997;48.902;12.472;2022-12-07T00:23:02;16.05;;;10.63;;
26271;SDS011;13997;48.902;12.472;2022-12-07T00:25:28;16.70;;;10.85;;
26271;SDS011;13997;48.902;12.472;2022-12-07T00:27:55;18.25;;;10.60;;
26271;SDS011;13997;48.902;12.472;2022-12-07T00:30:22;16.88;;;10.65;;
26271;SDS011;13997;48.902;12.472;2022-12-07T00:32:48;16.42;;;10.93;;
26271;SDS011;13997;48.902;12.472;2022-12-07T00:35:14;17.08;;;10.88;;
26271;SDS011;13997;48.902;12.472;2022-12-07T00:37:39;19.67;;;10.85;;
26271;SDS011;13997;48.902;12.472;2022-12-07T00:40:05;16.63;;;10.45;;
26271;SDS011;13997;48.902;12.472;2022-12-07T00:42:33;15.07;;;10.13;;
26271;SDS011;13997;48.902;12.472;2022-12-07T00:44:58;16.30;;;10.40;;
26271;SDS011;13997;48.902;12.472;2022-12-07T00:47:24;18.02;;;11.52;;
26271;SDS011;13997;48.902;12.472;2022-12-07T00:49:50;16.33;;;10.43;;
26271;SDS011;13997;48.902;12.472;2022-12-07T00:52:15;16.00;;;10.57;;
26271;SDS011;13997;48.902;12.472;2022-12-07T00:54:41;15.38;;;10.15;;
26271;SDS011;13997;48.902;12.472;2022-12-07T00:57:06;14.50;;;10.32;;
26271;SDS011;13997;48.902;12.472;2022-12-07T00:59:32;15.80;;;10.38;;
26271;SDS011;13997;48.902;12.472;2022-12-07T01:01:58;16.40;;;10.70;;
26271;SDS011;13997;48.902;12.472;2022-12-07T01:04:23;15.25;;;10.70;;
26271;SDS011;13997;48.902;12.472;2022-12-07T01:06:49;16.15;;;10.63;;
26271;SDS011;13997;48.902;12.472;2022-12-07T01:09:15;17.27;;;10.98;;
26271;SDS011;13997;48.902;12.472;2022-12-07T01:11:40;17.48;;;10.65;;
26271;SDS011;13997;48.902;12.472;2022-12-07T01:14:06;15.55;;;10.10;;
26271;SDS011;13997;48.902;12.472;2022-12-07T01:16:32;14.23;;;10.05;;
26271;SDS011;13997;48.902;12.472;2022-12-07T01:18:58;15.05;;;10.30;;
26271;SDS011;13997;48.902;12.472;2022-12-07T01:21:29;15.15;;;10.07;;
26271;SDS011;13997;48.902;12.472;2022-12-07T01:23:59;13.32;;;9.73;;
26271;SDS011;13997;48.902;12.472;2022-12-07T01:26:25;16.00;;;9.75;;
26271;SDS011;13997;48.902;12.472;2022-12-07T01:28:52;13.77;;;9.18;;
26271;SDS011;13997;48.902;12.472;2022-12-07T01:31:20;14.07;;;9.27;;
26271;SDS011;13997;48.902;12.472;2022-12-07T01:33:49;13.95;;;9.18;;
26271;SDS011;13997;48.902;12.472;2022-12-07T01:38:45;14.43;;;9.10;;
26271;SDS011;13997;48.902;12.472;2022-12-07T01:41:11;12.20;;;8.93;;
26271;SDS011;13997;48.902;12.472;2022-12-07T01:46:36;13.77;;;8.68;;
26271;SDS011;13997;48.902;12.472;2022-12-07T01:49:02;11.98;;;8.73;;
26271;SDS011;13997;48.902;12.472;2022-12-07T01:51:29;12.57;;;8.25;;
26271;SDS011;13997;48.902;12.472;2022-12-07T01:53:55;14.30;;;9.20;;
26271;SDS011;13997;48.902;12.472;2022-12-07T01:56:23;13.43;;;9.07;;
26271;SDS011;13997;48.902;12.472;2022-12-07T01:58:51;12.18;;;8.43;;
26271;SDS011;13997;48.902;12.472;2022-12-07T02:01:19;12.88;;;9.27;;
26271;SDS011;13997;48.902;12.472;2022-12-07T02:03:45;12.63;;;8.73;;
26271;SDS011;13997;48.902;12.472;2022-12-07T02:06:12;12.27;;;9.05;;
26271;SDS011;13997;48.902;12.472;2022-12-07T02:08:42;12.15;;;8.63;;
26271;SDS011;13997;48.902;12.472;2022-12-07T02:11:08;12.95;;;8.35;;
26271;SDS011;13997;48.902;12.472;2022-12-07T02:13:35;12.57;;;8.25;;
26271;SDS011;13997;48.902;12.472;2022-12-07T02:21:19;12.70;;;9.10;;
26271;SDS011;13997;48.902;12.472;2022-12-07T02:29:27;14.38;;;9.02;;
26271;SDS011;13997;48.902;12.472;2022-12-07T02:32:05;11.63;;;8.65;;
26271;SDS011;13997;48.902;12.472;2022-12-07T02:40:12;13.63;;;9.27;;
26271;SDS011;13997;48.902;12.472;2022-12-07T02:42:46;13.70;;;9.60;;
26271;SDS011;13997;48.902;12.472;2022-12-07T02:47:44;13.40;;;9.07;;
26271;SDS011;13997;48.902;12.472;2022-12-07T02:50:12;14.63;;;9.38;;
26271;SDS011;13997;48.902;12.472;2022-12-07T02:52:37;13.55;;;9.27;;
26271;SDS011;13997;48.902;12.472;2022-12-07T02:55:03;15.82;;;9.88;;
26271;SDS011;13997;48.902;12.472;2022-12-07T02:57:36;16.70;;;9.15;;
26271;SDS011;13997;48.902;12.472;2022-12-07T03:00:26;12.90;;;9.55;;
26271;SDS011;13997;48.902;12.472;2022-12-07T03:02:58;14.15;;;9.65;;
26271;SDS011;13997;48.902;12.472;2022-12-07T03:11:13;15.02;;;9.85;;
26271;SDS011;13997;48.902;12.472;2022-12-07T03:13:47;14.50;;;10.07;;
26271;SDS011;13997;48.902;12.472;2022-12-07T03:16:33;14.57;;;9.93;;
26271;SDS011;13997;48.902;12.472;2022-12-07T03:19:06;14.05;;;9.65;;
26271;SDS011;13997;48.902;12.472;2022-12-07T03:21:37;17.85;;;10.05;;
26271;SDS011;13997;48.902;12.472;2022-12-07T03:24:12;14.15;;;9.32;;
26271;SDS011;13997;48.902;12.472;2022-12-07T03:26:43;15.13;;;9.88;;
26271;SDS011;13997;48.902;12.472;2022-12-07T03:29:14;14.88;;;9.25;;
26271;SDS011;13997;48.902;12.472;2022-12-07T03:31:47;14.68;;;9.40;;
26271;SDS011;13997;48.902;12.472;2022-12-07T03:34:21;14.13;;;10.40;;
26271;SDS011;13997;48.902;12.472;2022-12-07T03:36:57;15.88;;;10.38;;
26271;SDS011;13997;48.902;12.472;2022-12-07T03:39:39;13.82;;;9.60;;
26271;SDS011;13997;48.902;12.472;2022-12-07T03:42:11;16.92;;;10.38;;
26271;SDS011;13997;48.902;12.472;2022-12-07T03:44:37;16.88;;;11.05;;
26271;SDS011;13997;48.902;12.472;2022-12-07T03:49:46;14.93;;;10.20;;
26271;SDS011;13997;48.902;12.472;2022-12-07T03:57:23;10.43;;;7.70;;
26271;SDS011;13997;48.902;12.472;2022-12-07T03:59:50;12.63;;;8.20;;
26271;SDS011;13997;48.902;12.472;2022-12-07T04:02:18;11.57;;;7.97;;
26271;SDS011;13997;48.902;12.472;2022-12-07T04:04:45;12.73;;;8.13;;
26271;SDS011;13997;48.902;12.472;2022-12-07T04:07:10;10.43;;;7.72;;
26271;SDS011;13997;48.902;12.472;2022-12-07T04:09:36;12.45;;;7.82;;
26271;SDS011;13997;48.902;12.472;2022-12-07T04:12:01;13.68;;;8.35;;
26271;SDS011;13997;48.902;12.472;2022-12-07T04:14:27;12.50;;;8.52;;
26271;SDS011;13997;48.902;12.472;2022-12-07T04:16:56;11.85;;;8.20;;
26271;SDS011;13997;48.902;12.472;2022-12-07T04:19:30;11.52;;;8.63;;
26271;SDS011;13997;48.902;12.472;2022-12-07T04:21:57;16.13;;;9.90;;
26271;SDS011;13997;48.902;12.472;2022-12-07T04:24:25;15.52;;;10.90;;
26271;SDS011;13997;48.902;12.472;2022-12-07T04:26:51;16.60;;;10.68;;
26271;SDS011;13997;48.902;12.472;2022-12-07T04:29:17;17.63;;;11.48;;
26271;SDS011;13997;48.902;12.472;2022-12-07T04:31:44;16.13;;;11.27;;
26271;SDS011;13997;48.902;12.472;2022-12-07T04:34:10;15.32;;;11.07;;
26271;SDS011;13997;48.902;12.472;2022-12-07T04:36:36;17.50;;;11.23;;
26271;SDS011;13997;48.902;12.472;2022-12-07T04:39:03;16.17;;;10.93;;
26271;SDS011;13997;48.902;12.472;2022-12-07T04:41:29;21.27;;;11.30;;
26271;SDS011;13997;48.902;12.472;2022-12-07T04:43:59;16.65;;;11.00;;
26271;SDS011;13997;48.902;12.472;2022-12-07T04:46:26;16.55;;;11.52;;
26271;SDS011;13997;48.902;12.472;2022-12-07T04:48:54;17.58;;;11.80;;
26271;SDS011;13997;48.902;12.472;2022-12-07T04:51:20;17.55;;;11.77;;
26271;SDS011;13997;48.902;12.472;2022-12-07T04:53:48;18.33;;;11.88;;
26271;SDS011;13997;48.902;12.472;2022-12-07T04:56:14;21.60;;;13.32;;
26271;SDS011;13997;48.902;12.472;2022-12-07T04:58:41;19.52;;;12.63;;
26271;SDS011;13997;48.902;12.472;2022-12-07T05:01:07;19.05;;;12.55;;
26271;SDS011;13997;48.902;12.472;2022-12-07T05:03:33;18.08;;;12.43;;
26271;SDS011;13997;48.902;12.472;2022-12-07T05:06:00;21.40;;;13.00;;
26271;SDS011;13997;48.902;12.472;2022-12-07T05:08:26;19.67;;;12.35;;
26271;SDS011;13997;48.902;12.472;2022-12-07T05:10:51;18.42;;;12.65;;
26271;SDS011;13997;48.902;12.472;2022-12-07T05:13:17;20.20;;;13.20;;
26271;SDS011;13997;48.902;12.472;2022-12-07T05:15:43;17.83;;;11.95;;
26271;SDS011;13997;48.902;12.472;2022-12-07T05:18:09;18.35;;;12.98;;
26271;SDS011;13997;48.902;12.472;2022-12-07T05:20:37;20.42;;;13.40;;
26271;SDS011;13997;48.902;12.472;2022-12-07T05:23:07;17.77;;;12.00;;
26271;SDS011;13997;48.902;12.472;2022-12-07T05:25:33;21.02;;;13.27;;
26271;SDS011;13997;48.902;12.472;2022-12-07T05:27:58;20.52;;;13.73;;
26271;SDS011;13997;48.902;12.472;2022-12-07T05:30:24;22.77;;;13.80;;
26271;SDS011;13997;48.902;12.472;2022-12-07T05:32:52;24.42;;;14.13;;
26271;SDS011;13997;48.902;12.472;2022-12-07T05:35:18;22.65;;;14.55;;
26271;SDS011;13997;48.902;12.472;2022-12-07T05:37:44;21.73;;;14.50;;
26271;SDS011;13997;48.902;12.472;2022-12-07T05:40:10;21.42;;;14.68;;
26271;SDS011;13997;48.902;12.472;2022-12-07T05:42:37;21.42;;;13.68;;
26271;SDS011;13997;48.902;12.472;2022-12-07T05:45:03;21.60;;;14.57;;
26271;SDS011;13997;48.902;12.472;2022-12-07T05:47:29;20.15;;;13.38;;
26271;SDS011;13997;48.902;12.472;2022-12-07T05:49:55;19.05;;;13.13;;
26271;SDS011;13997;48.902;12.472;2022-12-07T05:52:21;20.70;;;13.25;;
26271;SDS011;13997;48.902;12.472;2022-12-07T05:54:47;22.80;;;14.60;;
26271;SDS011;13997;48.902;12.472;2022-12-07T05:57:12;19.92;;;13.13;;
26271;SDS011;13997;48.902;12.472;2022-12-07T05:59:38;17.92;;;12.07;;
26271;SDS011;13997;48.902;12.472;2022-12-07T06:02:04;19.95;;;12.93;;
26271;SDS011;13997;48.902;12.472;2022-12-07T06:04:37;21.95;;;14.27;;
26271;SDS011;13997;48.902;12.472;2022-12-07T06:07:09;18.85;;;12.20;;
26271;SDS011;13997;48.902;12.472;2022-12-07T06:09:36;18.92;;;13.10;;
26271;SDS011;13997;48.902;12.472;2022-12-07T06:12:02;19.25;;;12.90;;
26271;SDS011;13997;48.902;12.472;2022-12-07T06:14:47;20.10;;;13.40;;
26271;SDS011;13997;48.902;12.472;2022-12-07T06:17:13;18.45;;;12.32;;
26271;SDS011;13997;48.902;12.472;2022-12-07T06:19:39;19.73;;;13.13;;
26271;SDS011;13997;48.902;12.472;2022-12-07T06:22:05;18.15;;;12.00;;
26271;SDS011;13997;48.902;12.472;2022-12-07T06:24:32;19.83;;;13.40;;
26271;SDS011;13997;48.902;12.472;2022-12-07T06:26:58;18.88;;;12.75;;
26271;SDS011;13997;48.902;12.472;2022-12-07T06:29:24;18.33;;;11.93;;
26271;SDS011;13997;48.902;12.472;2022-12-07T06:31:50;20.23;;;13.35;;
26271;SDS011;13997;48.902;12.472;2022-12-07T06:34:17;24.98;;;14.30;;
26271;SDS011;13997;48.902;12.472;2022-12-07T06:36:45;21.08;;;13.68;;
26271;SDS011;13997;48.902;12.472;2022-12-07T06:39:16;24.10;;;13.77;;
26271;SDS011;13997;48.902;12.472;2022-12-07T06:41:42;23.88;;;15.68;;
26271;SDS011;13997;48.902;12.472;2022-12-07T06:44:08;27.15;;;15.20;;
26271;SDS011;13997;48.902;12.472;2022-12-07T06:46:34;27.02;;;16.83;;
26271;SDS011;13997;48.902;12.472;2022-12-07T06:49:03;29.38;;;17.42;;
26271;SDS011;13997;48.902;12.472;2022-12-07T06:51:29;27.58;;;16.90;;
26271;SDS011;13997;48.902;12.472;2022-12-07T06:53:55;27.17;;;16.77;;
26271;SDS011;13997;48.902;12.472;2022-12-07T06:56:21;31.10;;;17.42;;
26271;SDS011;13997;48.902;12.472;2022-12-07T06:58:47;29.67;;;17.30;;
26271;SDS011;13997;48.902;12.472;2022-12-07T07:01:14;29.40;;;17.55;;
26271;SDS011;13997;48.902;12.472;2022-12-07T07:03:41;32.25;;;18.95;;
26271;SDS011;13997;48.902;12.472;2022-12-07T07:06:08;31.85;;;18.75;;
26271;SDS011;13997;48.902;12.472;2022-12-07T07:08:37;34.33;;;19.83;;
26271;SDS011;13997;48.902;12.472;2022-12-07T07:11:04;34.25;;;19.38;;
26271;SDS011;13997;48.902;12.472;2022-12-07T07:13:31;33.30;;;20.35;;
26271;SDS011;13997;48.902;12.472;2022-12-07T07:15:57;42.95;;;24.23;;
26271;SDS011;13997;48.902;12.472;2022-12-07T07:18:23;39.97;;;23.05;;
26271;SDS011;13997;48.902;12.472;2022-12-07T07:20:50;34.83;;;20.38;;
26271;SDS011;13997;48.902;12.472;2022-12-07T07:23:16;40.55;;;20.75;;
26271;SDS011;13997;48.902;12.472;2022-12-07T07:25:42;37.58;;;21.02;;
26271;SDS011;13997;48.902;12.472;2022-12-07T07:28:08;33.42;;;19.55;;
26271;SDS011;13997;48.902;12.472;2022-12-07T07:30:33;35.63;;;19.83;;
26271;SDS011;13997;48.902;12.472;2022-12-07T07:33:02;35.08;;;20.83;;
26271;SDS011;13997;48.902;12.472;2022-12-07T07:35:29;33.17;;;20.33;;
26271;SDS011;13997;48.902;12.472;2022-12-07T07:37:56;36.75;;;20.70;;
26271;SDS011;13997;48.902;12.472;2022-12-07T07:40:22;33.30;;;19.83;;
26271;SDS011;13997;48.902;12.472;2022-12-07T07:42:48;34.95;;;20.83;;
26271;SDS011;13997;48.902;12.472;2022-12-07T07:45:16;34.72;;;20.23;;
26271;SDS011;13997;48.902;12.472;2022-12-07T07:47:42;36.10;;;21.13;;
26271;SDS011;13997;48.902;12.472;2022-12-07T07:50:08;36.92;;;21.75;;
26271;SDS011;13997;48.902;12.472;2022-12-07T07:52:34;38.00;;;22.95;;
26271;SDS011;13997;48.902;12.472;2022-12-07T07:54:59;36.67;;;21.02;;
26271;SDS011;13997;48.902;12.472;2022-12-07T07:57:25;33.30;;;21.25;;
26271;SDS011;13997;48.902;12.472;2022-12-07T07:59:51;32.35;;;19.00;;
26271;SDS011;13997;48.902;12.472;2022-12-07T08:02:17;34.60;;;18.42;;
26271;SDS011;13997;48.902;12.472;2022-12-07T08:04:44;31.83;;;18.83;;
26271;SDS011;13997;48.902;12.472;2022-12-07T08:07:11;28.45;;;18.38;;
26271;SDS011;13997;48.902;12.472;2022-12-07T08:09:37;29.98;;;19.10;;
26271;SDS011;13997;48.902;12.472;2022-12-07T08:12:03;29.08;;;17.70;;
26271;SDS011;13997;48.902;12.472;2022-12-07T08:14:29;31.30;;;19.73;;
26271;SDS011;13997;48.902;12.472;2022-12-07T08:16:55;29.25;;;17.65;;
26271;SDS011;13997;48.902;12.472;2022-12-07T08:19:21;28.88;;;18.10;;
26271;SDS011;13997;48.902;12.472;2022-12-07T08:21:46;31.75;;;19.00;;
26271;SDS011;13997;48.902;12.472;2022-12-07T08:24:12;29.75;;;18.70;;
26271;SDS011;13997;48.902;12.472;2022-12-07T08:26:38;30.15;;;18.20;;
26271;SDS011;13997;48.902;12.472;2022-12-07T08:29:04;30.92;;;17.73;;
26271;SDS011;13997;48.902;12.472;2022-12-07T08:31:29;30.35;;;19.00;;
26271;SDS011;13997;48.902;12.472;2022-12-07T08:33:55;30.95;;;18.88;;
26271;SDS011;13997;48.902;12.472;2022-12-07T08:36:21;37.15;;;21.75;;
26271;SDS011;13997;48.902;12.472;2022-12-07T08:38:48;33.50;;;19.27;;
26271;SDS011;13997;48.902;12.472;2022-12-07T08:41:13;31.52;;;19.30;;
26271;SDS011;13997;48.902;12.472;2022-12-07T08:43:39;30.17;;;18.27;;
26271;SDS011;13997;48.902;12.472;2022-12-07T08:49:02;32.28;;;19.23;;
26271;SDS011;13997;48.902;12.472;2022-12-07T08:51:31;30.50;;;19.02;;
26271;SDS011;13997;48.902;12.472;2022-12-07T08:53:57;28.33;;;17.77;;
26271;SDS011;13997;48.902;12.472;2022-12-07T08:56:25;32.85;;;18.30;;
26271;SDS011;13997;48.902;12.472;2022-12-07T08:58:51;29.17;;;17.80;;
26271;SDS011;13997;48.902;12.472;2022-12-07T09:01:17;29.70;;;17.92;;
26271;SDS011;13997;48.902;12.472;2022-12-07T09:03:43;30.45;;;18.13;;
26271;SDS011;13997;48.902;12.472;2022-12-07T09:06:09;27.70;;;17.73;;
26271;SDS011;13997;48.902;12.472;2022-12-07T09:08:36;28.35;;;16.75;;
26271;SDS011;13997;48.902;12.472;2022-12-07T09:11:05;26.88;;;17.60;;
26271;SDS011;13997;48.902;12.472;2022-12-07T09:13:31;28.33;;;17.75;;
26271;SDS011;13997;48.902;12.472;2022-12-07T09:15:57;26.85;;;17.40;;
26271;SDS011;13997;48.902;12.472;2022-12-07T09:18:23;27.73;;;17.95;;
26271;SDS011;13997;48.902;12.472;2022-12-07T09:20:50;28.40;;;17.23;;
26271;SDS011;13997;48.902;12.472;2022-12-07T09:23:16;26.00;;;16.15;;
26271;SDS011;13997;48.902;12.472;2022-12-07T09:25:42;28.92;;;16.92;;
26271;SDS011;13997;48.902;12.472;2022-12-07T09:28:07;27.42;;;16.58;;
26271;SDS011;13997;48.902;12.472;2022-12-07T09:30:33;28.17;;;17.10;;
26271;SDS011;13997;48.902;12.472;2022-12-07T09:32:59;27.27;;;16.75;;
26271;SDS011;13997;48.902;12.472;2022-12-07T09:35:25;25.10;;;16.63;;
26271;SDS011;13997;48.902;12.472;2022-12-07T09:37:51;25.23;;;16.40;;
26271;SDS011;13997;48.902;12.472;2022-12-07T09:40:17;25.70;;;16.33;;
26271;SDS011;13997;48.902;12.472;2022-12-07T09:42:45;24.45;;;16.05;;
26271;SDS011;13997;48.902;12.472;2022-12-07T09:45:16;25.38;;;15.50;;
26271;SDS011;13997;48.902;12.472;2022-12-07T09:47:44;25.90;;;15.93;;
26271;SDS011;13997;48.902;12.472;2022-12-07T09:50:19;22.70;;;14.05;;
26271;SDS011;13997;48.902;12.472;2022-12-07T09:52:47;23.48;;;13.57;;
26271;SDS011;13997;48.902;12.472;2022-12-07T09:55:16;23.92;;;14.43;;
26271;SDS011;13997;48.902;12.472;2022-12-07T09:57:48;23.77;;;14.02;;
26271;SDS011;13997;48.902;12.472;2022-12-07T10:00:17;22.52;;;14.32;;
26271;SDS011;13997;48.902;12.472;2022-12-07T10:02:46;26.00;;;15.40;;
26271;SDS011;13997;48.902;12.472;2022-12-07T10:05:23;26.38;;;14.55;;
26271;SDS011;13997;48.902;12.472;2022-12-07T10:07:55;23.10;;;14.57;;
26271;SDS011;13997;48.902;12.472;2022-12-07T10:10:25;28.38;;;14.60;;
26271;SDS011;13997;48.902;12.472;2022-12-07T10:13:14;22.55;;;13.70;;
26271;SDS011;13997;48.902;12.472;2022-12-07T10:18:43;24.95;;;14.93;;
26271;SDS011;13997;48.902;12.472;2022-12-07T10:21:11;23.02;;;13.57;;
26271;SDS011;13997;48.902;12.472;2022-12-07T10:23:40;20.90;;;13.05;;
26271;SDS011;13997;48.902;12.472;2022-12-07T10:26:50;26.15;;;13.65;;
26271;SDS011;13997;48.902;12.472;2022-12-07T10:29:01;20.63;;;12.65;;
26271;SDS011;13997;48.902;12.472;2022-12-07T10:31:39;27.25;;;14.15;;
26271;SDS011;13997;48.902;12.472;2022-12-07T10:34:11;23.13;;;13.32;;
26271;SDS011;13997;48.902;12.472;2022-12-07T10:36:49;22.45;;;12.95;;
26271;SDS011;13997;48.902;12.472;2022-12-07T10:39:19;19.98;;;12.80;;
26271;SDS011;13997;48.902;12.472;2022-12-07T10:41:56;21.63;;;13.32;;
26271;SDS011;13997;48.902;12.472;2022-12-07T10:44:25;22.48;;;12.82;;
26271;SDS011;13997;48.902;12.472;2022-12-07T10:47:08;24.05;;;13.75;;
26271;SDS011;13997;48.902;12.472;2022-12-07T10:52:17;19.15;;;12.02;;
26271;SDS011;13997;48.902;12.472;2022-12-07T11:00:40;25.85;;;11.60;;
26271;SDS011;13997;48.902;12.472;2022-12-07T11:03:29;26.42;;;12.98;;
26271;SDS011;13997;48.902;12.472;2022-12-07T11:14:25;21.75;;;13.63;;
26271;SDS011;13997;48.902;12.472;2022-12-07T11:17:02;22.20;;;13.70;;
26271;SDS011;13997;48.902;12.472;2022-12-07T11:19:58;22.55;;;12.68;;
26271;SDS011;13997;48.902;12.472;2022-12-07T11:31:03;23.05;;;12.95;;
26271;SDS011;13997;48.902;12.472;2022-12-07T11:33:48;22.45;;;12.35;;
26271;SDS011;13997;48.902;12.472;2022-12-07T11:36:29;20.63;;;12.10;;
26271;SDS011;13997;48.902;12.472;2022-12-07T11:39:44;21.33;;;12.13;;
26271;SDS011;13997;48.902;12.472;2022-12-07T11:42:09;68.50;;;25.15;;
26271;SDS011;13997;48.902;12.472;2022-12-07T11:45:15;32.72;;;16.67;;
26271;SDS011;13997;48.902;12.472;2022-12-07T11:47:48;26.58;;;14.52;;
26271;SDS011;13997;48.902;12.472;2022-12-07T11:50:26;24.92;;;14.55;;
26271;SDS011;13997;48.902;12.472;2022-12-07T11:52:55;24.33;;;13.13;;
26271;SDS011;13997;48.902;12.472;2022-12-07T11:55:43;25.17;;;14.10;;
26271;SDS011;13997;48.902;12.472;2022-12-07T11:58:54;25.17;;;14.02;;
26271;SDS011;13997;48.902;12.472;2022-12-07T12:01:28;25.55;;;13.75;;
26271;SDS011;13997;48.902;12.472;2022-12-07T12:06:36;19.05;;;12.85;;
26271;SDS011;13997;48.902;12.472;2022-12-07T12:09:05;23.40;;;13.52;;
26271;SDS011;13997;48.902;12.472;2022-12-07T12:20:04;18.10;;;11.32;;
26271;SDS011;13997;48.902;12.472;2022-12-07T12:25:22;20.42;;;11.00;;
26271;SDS011;13997;48.902;12.472;2022-12-07T12:27:52;22.73;;;11.40;;
26271;SDS011;13997;48.902;12.472;2022-12-07T12:30:24;21.63;;;12.35;;
26271;SDS011;13997;48.902;12.472;2022-12-07T12:33:06;21.95;;;11.15;;
26271;SDS011;13997;48.902;12.472;2022-12-07T12:44:02;24.20;;;12.48;;
26271;SDS011;13997;48.902;12.472;2022-12-07T12:46:55;23.80;;;13.00;;
26271;SDS011;13997;48.902;12.472;2022-12-07T12:49:31;21.52;;;11.77;;
26271;SDS011;13997;48.902;12.472;2022-12-07T12:51:59;19.98;;;11.02;;
26271;SDS011;13997;48.902;12.472;2022-12-07T12:54:29;22.42;;;11.77;;
26271;SDS011;13997;48.902;12.472;2022-12-07T12:57:08;21.50;;;11.90;;
26271;SDS011;13997;48.902;12.472;2022-12-07T12:59:56;27.45;;;13.70;;
26271;SDS011;13997;48.902;12.472;2022-12-07T13:07:48;19.70;;;11.35;;
26271;SDS011;13997;48.902;12.472;2022-12-07T13:12:56;26.23;;;14.20;;
26271;SDS011;13997;48.902;12.472;2022-12-07T13:15:46;22.00;;;11.25;;
26271;SDS011;13997;48.902;12.472;2022-12-07T13:20:54;20.98;;;11.45;;
26271;SDS011;13997;48.902;12.472;2022-12-07T13:23:29;17.90;;;11.00;;
26271;SDS011;13997;48.902;12.472;2022-12-07T13:28:26;21.75;;;11.75;;
26271;SDS011;13997;48.902;12.472;2022-12-07T13:31:12;20.67;;;10.70;;
26271;SDS011;13997;48.902;12.472;2022-12-07T13:33:46;16.02;;;9.60;;
26271;SDS011;13997;48.902;12.472;2022-12-07T13:36:22;17.73;;;9.80;;
26271;SDS011;13997;48.902;12.472;2022-12-07T13:39:00;16.70;;;9.52;;
26271;SDS011;13997;48.902;12.472;2022-12-07T13:41:36;16.25;;;9.70;;
26271;SDS011;13997;48.902;12.472;2022-12-07T13:44:11;19.55;;;10.70;;
26271;SDS011;13997;48.902;12.472;2022-12-07T13:49:32;17.30;;;10.43;;
26271;SDS011;13997;48.902;12.472;2022-12-07T13:52:13;19.08;;;10.85;;
26271;SDS011;13997;48.902;12.472;2022-12-07T13:54:57;20.05;;;10.60;;
26271;SDS011;13997;48.902;12.472;2022-12-07T13:57:30;19.45;;;10.20;;
26271;SDS011;13997;48.902;12.472;2022-12-07T14:00:06;15.88;;;9.93;;
26271;SDS011;13997;48.902;12.472;2022-12-07T14:05:40;18.23;;;10.65;;
26271;SDS011;13997;48.902;12.472;2022-12-07T14:10:36;15.95;;;10.32;;
26271;SDS011;13997;48.902;12.472;2022-12-07T14:18:50;17.63;;;10.23;;
26271;SDS011;13997;48.902;12.472;2022-12-07T14:21:17;17.63;;;10.07;;
26271;SDS011;13997;48.902;12.472;2022-12-07T14:23:45;17.27;;;9.93;;
26271;SDS011;13997;48.902;12.472;2022-12-07T14:26:26;15.38;;;9.10;;
26271;SDS011;13997;48.902;12.472;2022-12-07T14:28:52;17.70;;;9.98;;
26271;SDS011;13997;48.902;12.472;2022-12-07T14:31:18;18.33;;;10.27;;
26271;SDS011;13997;48.902;12.472;2022-12-07T14:33:49;19.92;;;10.88;;
26271;SDS011;13997;48.902;12.472;2022-12-07T14:36:15;20.63;;;10.85;;
26271;SDS011;13997;48.902;12.472;2022-12-07T14:38:40;18.80;;;11.02;;
26271;SDS011;13997;48.902;12.472;2022-12-07T14:41:10;22.92;;;12.00;;
26271;SDS011;13997;48.902;12.472;2022-12-07T14:46:23;30.90;;;14.05;;
26271;SDS011;13997;48.902;12.472;2022-12-07T14:48:49;22.38;;;12.60;;
26271;SDS011;13997;48.902;12.472;2022-12-07T14:51:15;23.10;;;13.07;;
26271;SDS011;13997;48.902;12.472;2022-12-07T14:53:42;27.13;;;14.35;;
26271;SDS011;13997;48.902;12.472;2022-12-07T14:56:11;31.77;;;16.27;;
26271;SDS011;13997;48.902;12.472;2022-12-07T14:58:37;43.03;;;19.08;;
26271;SDS011;13997;48.902;12.472;2022-12-07T15:01:02;39.10;;;17.92;;
26271;SDS011;13997;48.902;12.472;2022-12-07T15:03:28;25.23;;;13.70;;
26271;SDS011;13997;48.902;12.472;2022-12-07T15:05:54;21.35;;;12.30;;
26271;SDS011;13997;48.902;12.472;2022-12-07T15:08:20;26.23;;;14.27;;
26271;SDS011;13997;48.902;12.472;2022-12-07T15:10:46;29.38;;;14.77;;
26271;SDS011;13997;48.902;12.472;2022-12-07T15:13:11;26.90;;;14.07;;
26271;SDS011;13997;48.902;12.472;2022-12-07T15:15:56;29.63;;;14.70;;
26271;SDS011;13997;48.902;12.472;2022-12-07T15:18:22;24.17;;;12.95;;
26271;SDS011;13997;48.902;12.472;2022-12-07T15:20:49;21.52;;;11.88;;
26271;SDS011;13997;48.902;12.472;2022-12-07T15:23:15;21.08;;;10.98;;
26271;SDS011;13997;48.902;12.472;2022-12-07T15:25:41;20.58;;;11.25;;
26271;SDS011;13997;48.902;12.472;2022-12-07T15:28:07;22.55;;;12.07;;
26271;SDS011;13997;48.902;12.472;2022-12-07T15:30:33;19.50;;;10.88;;
26271;SDS011;13997;48.902;12.472;2022-12-07T15:32:58;22.90;;;11.38;;
26271;SDS011;13997;48.902;12.472;2022-12-07T15:35:24;20.83;;;11.57;;
26271;SDS011;13997;48.902;12.472;2022-12-07T15:37:50;22.60;;;11.50;;
26271;SDS011;13997;48.902;12.472;2022-12-07T15:40:15;19.88;;;11.10;;
26271;SDS011;13997;48.902;12.472;2022-12-07T15:42:41;21.70;;;12.70;;
26271;SDS011;13997;48.902;12.472;2022-12-07T15:45:07;23.15;;;12.57;;
26271;SDS011;13997;48.902;12.472;2022-12-07T15:47:41;24.48;;;12.80;;
26271;SDS011;13997;48.902;12.472;2022-12-07T15:50:09;25.15;;;14.38;;
26271;SDS011;13997;48.902;12.472;2022-12-07T15:52:36;30.88;;;14.95;;
26271;SDS011;13997;48.902;12.472;2022-12-07T15:55:03;34.15;;;15.48;;
26271;SDS011;13997;48.902;12.472;2022-12-07T15:57:29;26.92;;;14.20;;
26271;SDS011;13997;48.902;12.472;2022-12-07T15:59:56;22.35;;;12.02;;
26271;SDS011;13997;48.902;12.472;2022-12-07T16:02:21;21.75;;;12.45;;
26271;SDS011;13997;48.902;12.472;2022-12-07T16:04:50;21.80;;;12.15;;
26271;SDS011;13997;48.902;12.472;2022-12-07T16:07:16;22.30;;;12.55;;
26271;SDS011;13997;48.902;12.472;2022-12-07T16:09:43;24.00;;;12.77;;
26271;SDS011;13997;48.902;12.472;2022-12-07T16:12:09;23.20;;;12.88;;
26271;SDS011;13997;48.902;12.472;2022-12-07T16:14:36;21.20;;;11.88;;
26271;SDS011;13997;48.902;12.472;2022-12-07T16:17:04;19.83;;;11.07;;
26271;SDS011;13997;48.902;12.472;2022-12-07T16:19:31;17.73;;;10.43;;
26271;SDS011;13997;48.902;12.472;2022-12-07T16:21:57;17.45;;;10.63;;
26271;SDS011;13997;48.902;12.472;2022-12-07T16:24:23;17.10;;;9.82;;